Time;durP1;ratioP1;P1;durP2;ratioP2;P2;SDS_P1;SDS_P2;PMS_P1;PMS_P2;Temp;Humidity;BMP_temperature;BMP_pressure;BME280_temperature;BME280_humidity;BME280_pressure;Samples;Min_cycle;Max_cycle;Signal;HPM_P1;HPM_P2
2022/09/09 00:01:54;;;;;;;;;0.50;0.50;;;;;17.39;65.06;100168.16;5032900;28;45407;-75
2022/09/09 00:04:30;;;;;;;;;2.75;1.75;;;;;17.39;64.56;100163.66;5033139;28;45439;-73
2022/09/09 00:07:10;;;;;;;;;1.00;1.00;;;;;17.37;64.89;100154.03;5033147;28;45527;-75
2022/09/09 00:09:46;;;;;;;;;0.25;0.25;;;;;17.34;64.85;100159.50;5033960;28;45152;-77
2022/09/09 00:12:16;;;;;;;;;0.00;0.00;;;;;17.26;65.31;100140.38;5032787;28;45396;-75
2022/09/09 00:14:54;;;;;;;;;0.25;0.25;;;;;17.31;64.53;100149.00;5012977;28;46251;-76
2022/09/09 00:17:30;;;;;;;;;1.75;0.00;;;;;17.26;64.96;100156.41;5023047;28;45460;-76
2022/09/09 00:20:01;;;;;;;;;1.00;1.00;;;;;17.25;65.41;100160.88;5033234;28;45382;-75
2022/09/09 00:22:33;;;;;;;;;2.00;2.00;;;;;17.12;65.37;100155.34;5033096;28;45407;-74
2022/09/09 00:25:46;;;;;;;;;0.00;0.00;;;;;17.16;65.77;100153.38;5015080;28;47454;-75
2022/09/09 00:28:18;;;;;;;;;1.00;1.00;;;;;17.14;65.72;100155.25;5032720;28;45424;-75
2022/09/09 00:30:47;;;;;;;;;3.50;0.00;;;;;17.12;65.69;100154.47;5016864;28;45412;-75
2022/09/09 00:33:15;;;;;;;;;1.00;1.00;;;;;17.12;65.91;100160.66;5036283;28;45503;-75
2022/09/09 00:35:53;;;;;;;;;1.00;1.00;;;;;17.08;66.11;100156.47;5036295;28;46582;-75
2022/09/09 00:38:28;;;;;;;;;0.50;0.00;;;;;17.05;66.21;100153.97;5018593;28;45397;-75
2022/09/09 00:41:07;;;;;;;;;0.25;0.25;;;;;17.08;66.41;100152.91;5036206;28;45376;-75
2022/09/09 00:43:36;;;;;;;;;3.00;2.00;;;;;17.03;66.36;100139.81;5035944;28;45498;-75
2022/09/09 00:46:22;;;;;;;;;3.00;1.25;;;;;17.05;66.65;100159.31;5036082;28;46157;-75
2022/09/09 00:48:59;;;;;;;;;2.75;1.00;;;;;17.03;66.83;100151.34;5035705;28;45498;-75
2022/09/09 00:51:56;;;;;;;;;1.00;1.00;;;;;17.02;66.79;100152.31;5035506;28;45534;-75
2022/09/09 00:54:35;;;;;;;;;1.25;1.00;;;;;16.99;66.87;100151.59;5036067;28;45469;-74
2022/09/09 00:57:10;;;;;;;;;1.00;1.00;;;;;16.96;67.23;100133.06;5035448;28;46155;-74
2022/09/09 00:59:47;;;;;;;;;1.00;1.00;;;;;16.97;67.24;100142.81;5035875;28;45555;-74
2022/09/09 01:02:21;;;;;;;;;1.00;0.00;;;;;16.93;67.26;100130.56;5036701;28;45450;-75
2022/09/09 01:04:47;;;;;;;;;3.00;2.00;;;;;16.93;67.23;100134.13;5014855;28;45352;-74
2022/09/09 01:07:18;;;;;;;;;1.25;1.25;;;;;16.93;67.38;100138.56;5032231;28;45463;-74
2022/09/09 01:10:03;;;;;;;;;2.50;0.75;;;;;16.89;67.36;100137.03;5035794;28;45517;-74
2022/09/09 01:12:48;;;;;;;;;1.00;1.00;;;;;16.84;67.65;100145.25;5035186;28;45518;-75
2022/09/09 01:15:22;;;;;;;;;1.00;1.00;;;;;16.81;67.69;100135.59;5035613;28;45353;-73
2022/09/09 01:18:02;;;;;;;;;1.25;1.25;;;;;16.75;67.77;100125.25;5035641;28;46217;-74
2022/09/09 01:20:55;;;;;;;;;2.00;1.00;;;;;16.74;67.83;100128.00;5035184;28;45368;-75
2022/09/09 01:24:08;;;;;;;;;0.25;0.25;;;;;16.77;67.93;100128.69;5035712;28;45478;-76
2022/09/09 01:26:44;;;;;;;;;2.25;1.25;;;;;16.76;68.01;100131.44;4937348;28;45702;-74
2022/09/09 01:29:14;;;;;;;;;2.00;1.00;;;;;16.71;68.21;100126.34;4954328;28;45494;-78
2022/09/09 01:31:56;;;;;;;;;3.25;2.00;;;;;16.75;68.18;100133.25;4955277;28;45567;-77
2022/09/09 01:34:24;;;;;;;;;1.25;1.25;;;;;16.75;68.12;100129.72;4938499;28;45566;-74
2022/09/09 01:36:53;;;;;;;;;1.00;1.00;;;;;16.78;68.30;100122.41;4954204;28;45490;-73
2022/09/09 01:39:20;;;;;;;;;2.00;2.00;;;;;16.78;68.02;100133.09;4954179;28;45576;-74
2022/09/09 01:41:45;;;;;;;;;0.00;0.00;;;;;16.75;68.21;100124.41;4952130;28;45558;-75
2022/09/09 01:44:11;;;;;;;;;2.00;1.75;;;;;16.75;68.27;100135.06;4953868;28;45755;-75
2022/09/09 01:46:37;;;;;;;;;1.50;1.50;;;;;16.75;68.21;100145.75;4954374;28;45440;-73
2022/09/09 01:49:06;;;;;;;;;0.50;0.50;;;;;16.77;68.26;100146.50;4953614;28;46408;-74
2022/09/09 01:51:33;;;;;;;;;1.25;0.00;;;;;16.73;68.16;100140.44;4953952;28;45475;-74
2022/09/09 01:53:58;;;;;;;;;1.25;0.00;;;;;16.78;68.27;100143.75;4954015;28;45514;-75
2022/09/09 01:56:58;;;;;;;;;2.00;0.00;;;;;16.86;68.31;100133.56;4953433;28;45490;-74
2022/09/09 01:59:48;;;;;;;;;0.25;0.25;;;;;16.86;68.11;100133.56;4953739;28;45436;-75
2022/09/09 02:02:18;;;;;;;;;2.50;1.25;;;;;16.80;68.26;100123.19;4968758;28;45557;-75
2022/09/09 02:04:49;;;;;;;;;1.00;1.00;;;;;16.76;68.11;100116.31;5014014;28;45394;-74
2022/09/09 02:07:41;;;;;;;;;5.50;1.00;;;;;16.84;68.38;100124.75;5014827;28;45466;-74
2022/09/09 02:10:19;;;;;;;;;1.00;0.00;;;;;16.80;68.33;100123.19;5014381;28;45350;-74
2022/09/09 02:12:50;;;;;;;;;1.00;1.00;;;;;16.80;68.26;100123.19;5014838;28;45496;-74
2022/09/09 02:15:54;;;;;;;;;2.00;0.00;;;;;16.78;68.23;100130.41;5014952;28;45383;-73
2022/09/09 02:18:27;;;;;;;;;1.00;1.00;;;;;16.79;68.53;100121.47;4992392;28;45390;-75
2022/09/09 02:20:53;;;;;;;;;6.00;2.00;;;;;16.77;68.38;100119.81;4991931;28;46430;-75
2022/09/09 02:23:20;;;;;;;;;1.50;0.25;;;;;16.73;68.41;100121.78;4992400;28;45492;-75
2022/09/09 02:25:48;;;;;;;;;0.00;0.00;;;;;16.73;68.50;100126.25;4992870;28;45495;-74
2022/09/09 02:28:17;;;;;;;;;1.00;0.25;;;;;16.67;68.31;100122.09;4992845;28;45563;-74
2022/09/09 02:30:46;;;;;;;;;1.00;1.00;;;;;16.69;68.69;100122.91;4993326;28;45618;-75
2022/09/09 02:33:14;;;;;;;;;1.00;1.00;;;;;16.70;68.59;100111.25;4975451;28;45401;-75
2022/09/09 02:35:41;;;;;;;;;1.00;1.00;;;;;16.71;68.94;100115.66;4992520;28;45513;-74
2022/09/09 02:38:13;;;;;;;;;3.50;1.50;;;;;16.71;68.56;100118.34;4992186;28;45507;-74
2022/09/09 02:40:38;;;;;;;;;0.75;0.75;;;;;16.70;68.56;100122.81;4991698;28;46332;-76
2022/09/09 02:43:05;;;;;;;;;1.50;1.50;;;;;16.73;68.85;100120.94;4992180;28;45440;-74
2022/09/09 02:45:57;;;;;;;;;1.75;1.00;;;;;16.75;68.71;100119.91;4989603;28;45456;-75
2022/09/09 02:48:34;;;;;;;;;1.75;1.00;;;;;16.68;68.72;100105.16;4972875;28;45370;-74
2022/09/09 02:51:16;;;;;;;;;0.00;0.00;;;;;16.75;68.71;100113.72;4972128;28;47528;-74
2022/09/09 02:54:04;;;;;;;;;0.50;0.50;;;;;16.78;68.49;100101.06;4972139;28;45506;-74
2022/09/09 02:56:37;;;;;;;;;1.00;1.00;;;;;16.73;68.61;100105.75;5033833;28;45527;-73
2022/09/09 02:59:04;;;;;;;;;0.00;0.00;;;;;16.74;68.67;100109.31;5034933;28;45483;-73
2022/09/09 03:01:30;;;;;;;;;6.00;2.25;;;;;16.74;68.80;100117.31;5033860;28;46160;-74
2022/09/09 03:03:55;;;;;;;;;2.25;1.50;;;;;16.72;69.01;100104.06;5033434;28;45345;-74
2022/09/09 03:06:21;;;;;;;;;2.50;2.00;;;;;16.74;68.71;100107.50;5034420;28;45559;-76
2022/09/09 03:08:47;;;;;;;;;1.00;1.00;;;;;16.73;68.85;100104.91;5033960;28;45387;-73
2022/09/09 03:11:13;;;;;;;;;1.00;1.00;;;;;16.74;68.47;100102.16;5033135;28;45569;-73
2022/09/09 03:13:39;;;;;;;;;3.00;1.00;;;;;16.79;68.38;100110.81;5033912;28;45456;-74
2022/09/09 03:16:05;;;;;;;;;1.75;1.75;;;;;16.74;68.94;100112.00;5033774;28;45427;-75
2022/09/09 03:18:31;;;;;;;;;1.75;1.00;;;;;16.76;69.00;100110.09;5034511;28;45465;-74
2022/09/09 03:20:57;;;;;;;;;2.50;2.00;;;;;16.74;69.03;100107.50;5033500;28;46115;-74
2022/09/09 03:23:24;;;;;;;;;1.00;1.00;;;;;16.76;69.13;100116.31;5033259;28;45419;-77
2022/09/09 03:25:51;;;;;;;;;4.50;0.75;;;;;16.76;68.96;100110.09;5034824;28;45443;-75
2022/09/09 03:28:16;;;;;;;;;1.00;1.00;;;;;16.70;69.12;100103.25;5033579;28;45543;-75
2022/09/09 03:30:41;;;;;;;;;1.50;1.50;;;;;16.71;68.94;100107.66;5032959;28;45904;-74
2022/09/09 03:33:07;;;;;;;;;2.00;2.00;;;;;16.71;68.91;100107.66;5033662;28;45318;-73
2022/09/09 03:35:32;;;;;;;;;2.25;2.25;;;;;16.70;69.25;100108.59;5033564;28;45392;-75
2022/09/09 03:37:57;;;;;;;;;1.25;0.75;;;;;16.62;69.12;100105.47;5034133;28;45378;-75
2022/09/09 03:40:23;;;;;;;;;1.50;1.50;;;;;16.59;69.16;100100.31;5032889;28;46369;-75
2022/09/09 03:42:48;;;;;;;;;3.00;1.75;;;;;16.61;69.32;100111.75;5015502;28;45402;-75
2022/09/09 03:45:14;;;;;;;;;1.00;1.00;;;;;16.61;69.37;100101.97;5033182;28;45390;-73
2022/09/09 03:47:39;;;;;;;;;3.00;2.00;;;;;16.58;69.62;100101.25;5033920;28;45323;-74
2022/09/09 03:50:10;;;;;;;;;1.00;1.00;;;;;16.55;69.50;100104.97;5033261;28;46248;-75
2022/09/09 03:52:37;;;;;;;;;3.00;1.75;;;;;16.56;69.49;100103.16;5033732;28;45408;-75
2022/09/09 03:55:02;;;;;;;;;2.50;1.00;;;;;16.49;69.73;100108.81;5034037;28;45455;-75
2022/09/09 03:57:29;;;;;;;;;1.00;1.00;;;;;16.41;69.93;100100.31;5032921;28;45474;-74
2022/09/09 03:59:55;;;;;;;;;1.75;1.00;;;;;16.44;70.20;100112.63;5032347;28;46223;-74
2022/09/09 04:02:21;;;;;;;;;2.25;1.00;;;;;16.44;70.32;100105.53;5033657;28;45443;-74
2022/09/09 04:04:46;;;;;;;;;1.50;1.50;;;;;16.41;70.23;100113.66;5034087;28;45485;-75
2022/09/09 04:07:12;;;;;;;;;3.00;2.00;;;;;16.41;70.54;100097.66;5036804;28;45424;-74
2022/09/09 04:09:37;;;;;;;;;2.50;2.50;;;;;16.33;70.59;100091.84;5036711;28;46518;-74
2022/09/09 04:12:03;;;;;;;;;1.75;1.75;;;;;16.34;70.82;100102.44;5036284;28;47158;-74
2022/09/09 04:14:29;;;;;;;;;1.00;1.00;;;;;16.26;70.90;100096.66;5036650;28;45455;-74
2022/09/09 04:16:55;;;;;;;;;1.00;1.00;;;;;16.29;71.01;100092.94;5036656;28;45479;-74
2022/09/09 04:19:21;;;;;;;;;2.00;2.00;;;;;16.28;71.12;100091.25;5036911;28;45482;-74
2022/09/09 04:21:48;;;;;;;;;1.50;1.50;;;;;16.26;71.35;100086.00;5036854;28;45458;-75
2022/09/09 04:24:16;;;;;;;;;2.00;1.00;;;;;16.26;71.39;100095.78;5036809;28;45474;-73
2022/09/09 04:26:41;;;;;;;;;3.00;1.25;;;;;16.21;71.33;100087.16;5035654;28;45340;-75
2022/09/09 04:29:06;;;;;;;;;3.00;1.00;;;;;16.26;71.59;100095.78;5035949;28;46216;-74
2022/09/09 04:31:32;;;;;;;;;2.75;2.00;;;;;16.25;71.75;100096.75;5036845;28;45487;-73
2022/09/09 04:33:57;;;;;;;;;3.00;1.50;;;;;16.14;71.90;100082.16;5036555;28;45400;-75
2022/09/09 04:36:23;;;;;;;;;1.00;1.00;;;;;16.15;71.77;100099.88;5036170;28;45419;-75
2022/09/09 04:38:49;;;;;;;;;2.00;2.00;;;;;16.16;71.85;100093.56;5036182;28;45945;-74
2022/09/09 04:41:15;;;;;;;;;1.25;1.00;;;;;16.13;72.14;100090.22;5035519;28;45400;-74
2022/09/09 04:43:40;;;;;;;;;1.50;1.50;;;;;16.11;72.23;100092.09;5036789;28;45425;-75
2022/09/09 04:46:06;;;;;;;;;3.00;3.00;;;;;16.10;71.90;100093.91;5035871;28;45553;-74
2022/09/09 04:48:32;;;;;;;;;4.00;2.00;;;;;16.12;72.21;100099.16;5036334;28;45481;-74
2022/09/09 04:51:04;;;;;;;;;1.00;1.00;;;;;16.10;72.44;100098.38;5018591;28;45410;-75
2022/09/09 04:53:30;;;;;;;;;1.00;1.00;;;;;16.06;72.67;100102.13;5036295;28;45474;-75
2022/09/09 04:56:08;;;;;;;;;1.00;1.00;;;;;16.03;72.47;100095.13;5035511;28;45569;-74
2022/09/09 04:58:33;;;;;;;;;2.50;1.00;;;;;16.03;72.23;100103.13;5018058;28;45471;-74
2022/09/09 05:01:10;;;;;;;;;1.00;1.00;;;;;16.02;72.45;100098.75;5035977;28;45399;-74
2022/09/09 05:03:36;;;;;;;;;2.00;1.00;;;;;16.03;72.50;100107.59;5026604;28;45411;-74
2022/09/09 05:06:06;;;;;;;;;2.00;1.25;;;;;15.95;72.34;100092.00;5015813;28;45411;-74
2022/09/09 05:08:32;;;;;;;;;1.00;1.00;;;;;15.94;72.66;100100.94;5015886;28;45402;-74
2022/09/09 05:10:59;;;;;;;;;1.25;1.25;;;;;15.93;72.79;100104.56;5014876;28;45402;-75
2022/09/09 05:13:24;;;;;;;;;4.50;2.75;;;;;15.92;72.67;100113.47;5016298;28;45383;-75
2022/09/09 05:15:54;;;;;;;;;2.00;2.00;;;;;15.89;73.19;100119.81;5028912;28;45331;-74
2022/09/09 05:18:20;;;;;;;;;0.25;0.25;;;;;15.90;73.04;100121.53;5036640;28;45934;-75
2022/09/09 05:20:45;;;;;;;;;3.75;2.25;;;;;15.91;73.15;100123.28;5035386;28;45447;-75
2022/09/09 05:23:13;;;;;;;;;2.25;2.25;;;;;15.91;73.19;100122.41;5036459;28;45404;-75
2022/09/09 05:25:41;;;;;;;;;2.00;2.00;;;;;15.96;73.09;100120.38;5035013;28;45340;-75
2022/09/09 05:28:07;;;;;;;;;2.50;2.00;;;;;15.93;73.23;100128.53;5035296;28;46343;-75
2022/09/09 05:30:33;;;;;;;;;2.00;2.00;;;;;15.96;72.90;100126.56;5035266;28;45575;-76
2022/09/09 05:32:59;;;;;;;;;2.00;2.00;;;;;16.01;72.74;100121.00;5036117;28;45568;-75
2022/09/09 05:35:24;;;;;;;;;2.50;2.50;;;;;16.07;72.60;100123.38;5035593;28;45482;-75
2022/09/09 05:37:49;;;;;;;;;1.75;1.75;;;;;16.02;72.65;100120.09;5035336;28;46079;-75
2022/09/09 05:40:15;;;;;;;;;4.00;2.00;;;;;16.08;72.47;100121.56;5035155;28;45388;-75
2022/09/09 05:42:41;;;;;;;;;2.50;2.50;;;;;16.09;72.68;100132.13;5034800;28;45372;-74
2022/09/09 05:45:07;;;;;;;;;2.00;2.00;;;;;16.18;72.78;100128.16;5035507;28;45543;-76
2022/09/09 05:47:33;;;;;;;;;2.00;2.00;;;;;16.33;72.30;100124.72;5017547;28;46883;-74
2022/09/09 05:49:59;;;;;;;;;7.00;2.00;;;;;16.45;71.94;100133.03;5035675;28;45540;-75
2022/09/09 05:52:26;;;;;;;;;2.50;2.00;;;;;16.43;72.00;100140.28;5035295;28;45569;-74
2022/09/09 05:54:51;;;;;;;;;4.25;1.25;;;;;16.43;71.73;100135.78;5034821;28;45571;-76
2022/09/09 05:57:17;;;;;;;;;4.00;3.00;;;;;16.42;72.07;100106.53;5016521;28;47568;-75
2022/09/09 05:59:42;;;;;;;;;3.00;1.00;;;;;16.44;72.00;100116.19;5035047;28;45391;-75
2022/09/09 06:02:09;;;;;;;;;4.00;2.75;;;;;16.93;71.02;100123.44;5035539;28;45495;-74
2022/09/09 06:04:34;;;;;;;;;2.25;1.75;;;;;16.97;69.91;100110.78;5034906;28;45431;-75
2022/09/09 06:07:00;;;;;;;;;1.00;1.00;;;;;16.98;70.11;100109.84;5033519;28;46890;-75
2022/09/09 06:09:26;;;;;;;;;3.00;3.00;;;;;16.95;70.01;100099.34;5033600;28;45397;-74
2022/09/09 06:11:51;;;;;;;;;2.50;2.50;;;;;16.97;69.93;100103.63;5034571;28;45463;-76
2022/09/09 06:14:17;;;;;;;;;2.50;1.50;;;;;17.02;70.10;100119.41;5035195;28;45431;-74
2022/09/09 06:16:43;;;;;;;;;1.25;1.00;;;;;17.00;70.01;100116.81;5035244;28;45431;-75
2022/09/09 06:19:09;;;;;;;;;3.00;2.00;;;;;17.04;69.83;100125.53;5034947;28;45471;-73
2022/09/09 06:21:40;;;;;;;;;3.00;1.50;;;;;17.03;69.75;100118.47;5034644;28;45328;-76
2022/09/09 06:24:07;;;;;;;;;4.25;3.00;;;;;17.02;69.97;100127.41;5034805;28;45379;-74
2022/09/09 06:26:35;;;;;;;;;1.75;1.75;;;;;17.09;69.86;100136.81;5034066;28;45566;-74
2022/09/09 06:29:03;;;;;;;;;4.00;2.75;;;;;17.12;69.99;100125.13;5033885;28;45480;-74
2022/09/09 06:31:30;;;;;;;;;0.75;0.75;;;;;17.18;69.42;100128.31;5016675;28;45483;-74
2022/09/09 06:33:56;;;;;;;;;4.75;2.00;;;;;17.21;69.31;100122.78;5034249;28;45564;-74
2022/09/09 06:36:39;;;;;;;;;3.50;2.00;;;;;17.24;69.22;100116.44;5034297;28;48015;-74
2022/09/09 06:39:06;;;;;;;;;2.00;2.00;;;;;17.21;68.96;100125.47;5034282;28;45542;-75
2022/09/09 06:41:32;;;;;;;;;2.25;2.00;;;;;17.24;68.83;100105.75;5034157;28;45431;-74
2022/09/09 06:43:58;;;;;;;;;2.75;2.00;;;;;17.27;68.33;100121.59;5034705;28;45484;-75
2022/09/09 06:46:30;;;;;;;;;4.00;2.00;;;;;17.34;68.16;100116.78;5034824;28;45581;-75
2022/09/09 06:48:57;;;;;;;;;1.00;1.00;;;;;17.41;68.07;100128.84;5034338;28;45515;-74
2022/09/09 06:51:23;;;;;;;;;2.00;1.00;;;;;17.45;68.02;100125.06;5034250;28;45513;-74
2022/09/09 06:53:54;;;;;;;;;4.00;1.25;;;;;17.53;67.87;100128.16;5033921;28;45419;-74
2022/09/09 06:56:34;;;;;;;;;1.75;1.75;;;;;17.52;67.20;100120.22;5012970;28;48257;-74
2022/09/09 06:59:03;;;;;;;;;2.00;2.00;;;;;17.58;66.89;100120.75;5014883;28;45419;-74
2022/09/09 07:01:31;;;;;;;;;2.00;1.25;;;;;17.72;66.82;100136.00;4996504;28;45475;-74
2022/09/09 07:04:01;;;;;;;;;3.50;2.25;;;;;17.85;66.09;100128.13;5025818;28;45500;-74
2022/09/09 07:06:36;;;;;;;;;2.00;2.00;;;;;18.19;65.21;100136.94;5033449;28;46385;-74
2022/09/09 07:09:08;;;;;;;;;3.00;2.00;;;;;18.92;63.41;100127.28;5016763;28;45445;-73
2022/09/09 07:11:41;;;;;;;;;3.00;1.75;;;;;19.35;61.87;100133.44;5033864;28;45439;-74
2022/09/09 07:14:07;;;;;;;;;1.75;1.75;;;;;19.35;61.72;100144.16;5034263;28;45371;-75
2022/09/09 07:16:33;;;;;;;;;2.50;1.75;;;;;19.44;60.69;100131.16;5033988;28;46066;-75
2022/09/09 07:19:00;;;;;;;;;1.00;1.00;;;;;19.60;60.73;100131.91;5033722;28;45549;-74
2022/09/09 07:21:27;;;;;;;;;2.00;2.00;;;;;19.66;60.32;100135.97;5033763;28;45448;-74
2022/09/09 07:23:53;;;;;;;;;2.25;2.00;;;;;19.84;60.08;100139.31;5015736;28;45372;-75
2022/09/09 07:26:21;;;;;;;;;2.75;2.75;;;;;19.96;59.59;100143.88;5033319;28;46585;-74
2022/09/09 07:28:49;;;;;;;;;3.00;2.00;;;;;20.55;57.54;100132.75;5033580;28;45416;-75
2022/09/09 07:31:21;;;;;;;;;0.50;0.50;;;;;20.49;57.23;100135.88;5033995;28;45358;-76
2022/09/09 07:33:47;;;;;;;;;1.00;0.75;;;;;20.40;57.81;100150.75;5033762;28;45421;-76
2022/09/09 07:36:17;;;;;;;;;3.25;2.00;;;;;21.08;56.03;100156.88;5033661;28;45474;-75
2022/09/09 07:38:48;;;;;;;;;1.00;1.00;;;;;21.39;54.61;100143.06;5033568;28;45498;-75
2022/09/09 07:41:23;;;;;;;;;1.25;1.00;;;;;21.41;54.65;100160.81;5036536;28;45310;-74
2022/09/09 07:43:49;;;;;;;;;3.00;2.00;;;;;21.11;54.91;100148.59;5037934;28;45474;-75
2022/09/09 07:46:17;;;;;;;;;1.00;1.00;;;;;20.75;55.64;100142.16;5037326;28;45536;-75
2022/09/09 07:48:51;;;;;;;;;2.00;2.00;;;;;20.56;55.83;100144.38;5037314;28;45455;-75
2022/09/09 07:51:19;;;;;;;;;2.00;1.00;;;;;20.33;57.23;100157.53;5036750;28;45350;-75
2022/09/09 07:53:51;;;;;;;;;3.50;3.00;;;;;20.20;57.32;100160.16;5037504;28;45578;-75
2022/09/09 07:56:17;;;;;;;;;2.00;1.25;;;;;20.08;57.36;100168.19;5037116;28;46373;-75
2022/09/09 07:58:45;;;;;;;;;4.00;1.00;;;;;19.78;57.54;100155.81;5036731;28;45497;-75
2022/09/09 08:01:17;;;;;;;;;0.75;0.75;;;;;19.69;58.11;100162.59;5037072;28;45519;-75
2022/09/09 08:03:44;;;;;;;;;2.00;2.00;;;;;19.66;58.42;100170.81;5037185;28;45438;-75
2022/09/09 08:06:11;;;;;;;;;1.00;1.00;;;;;19.73;58.15;100179.34;5018830;28;46036;-76
2022/09/09 08:08:38;;;;;;;;;0.75;0.75;;;;;19.69;58.10;100160.78;5037132;28;45419;-76
2022/09/09 08:11:12;;;;;;;;;0.50;0.50;;;;;19.65;58.44;100178.03;5037494;28;45414;-75
2022/09/09 08:13:38;;;;;;;;;1.75;1.75;;;;;19.58;58.64;100182.03;5019603;28;45344;-76
2022/09/09 08:16:26;;;;;;;;;2.25;2.25;;;;;19.47;58.61;100192.59;5036544;28;46141;-75
2022/09/09 08:18:53;;;;;;;;;2.00;2.00;;;;;19.29;59.32;100192.78;5036507;28;45457;-76
2022/09/09 08:21:23;;;;;;;;;1.00;1.00;;;;;19.27;59.46;100192.03;5018759;28;45479;-75
2022/09/09 08:23:51;;;;;;;;;1.00;1.00;;;;;19.27;59.46;100192.03;5036824;28;45461;-74
2022/09/09 08:26:23;;;;;;;;;2.00;1.00;;;;;19.24;59.58;100192.22;5036394;28;46196;-75
2022/09/09 08:28:51;;;;;;;;;2.00;2.00;;;;;19.27;59.44;100194.72;5036298;28;45357;-75
2022/09/09 08:31:20;;;;;;;;;1.00;1.00;;;;;19.30;59.22;100189.16;5036607;28;45359;-75
2022/09/09 08:33:46;;;;;;;;;1.00;1.00;;;;;19.58;58.84;100206.16;5018524;28;45467;-75
2022/09/09 08:36:15;;;;;;;;;1.00;1.00;;;;;19.79;58.84;100201.28;5036440;28;45458;-75
2022/09/09 08:38:46;;;;;;;;;3.50;2.00;;;;;20.41;57.48;100192.75;5036859;28;45368;-75
2022/09/09 08:41:51;;;;;;;;;1.00;1.00;;;;;20.79;56.20;100199.19;5035914;28;45407;-75
2022/09/09 08:44:23;;;;;;;;;2.00;1.00;;;;;21.05;55.43;100202.75;5036809;28;45538;-74
2022/09/09 08:47:06;;;;;;;;;1.25;1.25;;;;;21.11;54.67;100196.94;5036117;28;46756;-75
2022/09/09 08:49:56;;;;;;;;;1.00;1.00;;;;;21.22;54.66;100189.97;5035615;28;45450;-76
2022/09/09 08:52:30;;;;;;;;;3.25;2.25;;;;;21.09;54.68;100198.06;5035556;28;45518;-75
2022/09/09 08:55:15;;;;;;;;;2.00;2.00;;;;;20.94;54.54;100194.59;5036324;28;45387;-75
2022/09/09 08:57:40;;;;;;;;;4.00;2.00;;;;;20.86;54.68;100210.38;5035737;28;45442;-75
2022/09/09 09:00:10;;;;;;;;;0.75;0.75;;;;;20.81;54.78;100204.47;5035634;28;45512;-74
2022/09/09 09:02:56;;;;;;;;;0.00;0.00;;;;;20.69;55.09;100212.38;5034377;28;45553;-74
2022/09/09 09:05:37;;;;;;;;;1.50;1.50;;;;;20.70;55.57;100208.75;5016427;28;45320;-76
2022/09/09 09:08:26;;;;;;;;;0.00;0.00;;;;;21.10;55.09;100219.44;5016678;28;45548;-76
2022/09/09 09:10:56;;;;;;;;;3.25;1.25;;;;;21.47;53.70;100215.97;5014988;28;45406;-75
2022/09/09 09:13:38;;;;;;;;;2.00;2.00;;;;;21.42;53.37;100229.75;5015786;28;45465;-76
2022/09/09 09:16:18;;;;;;;;;1.00;1.00;;;;;21.37;53.94;100226.50;5015737;28;45594;-74
2022/09/09 09:18:43;;;;;;;;;3.00;1.50;;;;;21.32;53.96;100228.66;5015522;28;45364;-75
2022/09/09 09:21:31;;;;;;;;;1.25;1.25;;;;;21.17;53.97;100237.81;5015409;28;45407;-75
2022/09/09 09:23:59;;;;;;;;;3.75;2.00;;;;;21.10;54.35;100243.63;5012962;28;45276;-75
2022/09/09 09:26:32;;;;;;;;;2.50;0.50;;;;;20.83;54.92;100237.44;5035151;28;45673;-75
2022/09/09 09:28:59;;;;;;;;;2.75;1.00;;;;;20.75;55.08;100230.75;5035463;28;45543;-74
2022/09/09 09:31:26;;;;;;;;;1.25;1.25;;;;;20.73;55.10;100237.22;5034980;28;45487;-75
2022/09/09 09:33:58;;;;;;;;;2.25;1.25;;;;;20.64;54.77;100235.13;5036212;28;45580;-75
2022/09/09 09:36:34;;;;;;;;;2.50;1.75;;;;;20.55;55.18;100247.31;5036684;28;45567;-76
2022/09/09 09:39:02;;;;;;;;;2.25;2.00;;;;;20.49;55.84;100248.59;5035953;28;45737;-75
2022/09/09 09:41:38;;;;;;;;;2.25;2.00;;;;;20.36;56.03;100253.03;5017338;28;45468;-75
2022/09/09 09:44:05;;;;;;;;;1.00;1.00;;;;;20.21;56.21;100261.16;5035422;28;45411;-76
2022/09/09 09:46:31;;;;;;;;;0.50;0.50;;;;;20.14;56.57;100258.97;5034959;28;45601;-75
2022/09/09 09:49:05;;;;;;;;;3.00;2.50;;;;;20.01;56.87;100253.53;5035537;28;46039;-74
2022/09/09 09:51:32;;;;;;;;;1.00;1.00;;;;;20.01;57.50;100262.44;5017099;28;45426;-75
2022/09/09 09:54:21;;;;;;;;;2.75;1.25;;;;;19.96;57.23;100261.88;5035408;28;45348;-76
2022/09/09 09:56:47;;;;;;;;;2.00;2.00;;;;;20.05;57.50;100253.22;5034852;28;45535;-77
2022/09/09 09:59:27;;;;;;;;;3.50;2.00;;;;;20.31;57.17;100266.75;5034850;28;46143;-76
2022/09/09 10:01:53;;;;;;;;;1.75;1.50;;;;;20.59;56.56;100264.97;5034939;28;45447;-76
2022/09/09 10:04:23;;;;;;;;;1.00;1.00;;;;;20.88;55.58;100259.47;5014546;28;45370;-76
2022/09/09 10:06:49;;;;;;;;;1.00;1.00;;;;;21.01;54.78;100260.34;5015347;28;45464;-75
2022/09/09 10:09:25;;;;;;;;;1.00;1.00;;;;;21.10;54.52;100261.53;5014705;28;45421;-75
2022/09/09 10:12:09;;;;;;;;;2.00;1.00;;;;;21.23;54.39;100258.88;5014490;28;45504;-75
2022/09/09 10:14:50;;;;;;;;;1.00;1.00;;;;;21.15;53.92;100271.97;5022026;28;45281;-76
2022/09/09 10:17:52;;;;;;;;;1.00;1.00;;;;;21.10;54.45;100270.47;5035482;28;45415;-75
2022/09/09 10:20:51;;;;;;;;;1.75;1.75;;;;;21.09;53.73;100262.53;5034649;28;45316;-77
2022/09/09 10:24:05;;;;;;;;;2.00;1.00;;;;;21.18;53.79;100278.00;5017253;28;45436;-76
2022/09/09 10:26:59;;;;;;;;;1.00;1.00;;;;;21.51;53.25;100270.41;4999828;28;45561;-76
2022/09/09 10:29:51;;;;;;;;;3.00;1.00;;;;;21.76;52.42;100261.47;5034369;28;45448;-76
2022/09/09 10:32:47;;;;;;;;;6.00;2.00;;;;;22.05;52.12;100269.25;5036268;28;46166;-76
2022/09/09 10:35:34;;;;;;;;;2.00;1.00;;;;;22.42;51.74;100275.47;5034961;28;45333;-75
2022/09/09 10:38:13;;;;;;;;;2.00;2.00;;;;;22.53;50.92;100277.38;5035036;28;45383;-75
2022/09/09 10:40:56;;;;;;;;;2.00;2.00;;;;;22.46;51.58;100271.59;5033750;28;45479;-75
2022/09/09 10:43:39;;;;;;;;;3.00;1.75;;;;;22.28;51.84;100275.63;5034250;28;46109;-76
2022/09/09 10:46:27;;;;;;;;;3.75;2.00;;;;;22.19;51.72;100272.63;5033985;28;45478;-76
2022/09/09 10:49:30;;;;;;;;;1.00;1.00;;;;;22.19;51.68;100267.25;5034379;28;45400;-75
2022/09/09 10:52:01;;;;;;;;;2.00;2.00;;;;;22.38;51.40;100263.25;5033817;28;45511;-76
2022/09/09 10:54:30;;;;;;;;;2.75;2.00;;;;;22.62;50.88;100265.06;5034743;28;46127;-75
2022/09/09 10:57:01;;;;;;;;;1.25;1.25;;;;;22.94;50.41;100259.94;5034248;28;45532;-75
2022/09/09 10:59:33;;;;;;;;;2.00;2.00;;;;;22.98;49.54;100260.53;5034892;28;45467;-76
2022/09/09 11:02:13;;;;;;;;;1.00;1.00;;;;;22.98;49.59;100261.38;5036075;28;45398;-75
2022/09/09 11:04:49;;;;;;;;;1.50;1.25;;;;;22.85;50.10;100272.25;5034750;28;45584;-75
2022/09/09 11:07:40;;;;;;;;;1.00;1.00;;;;;22.57;52.48;100261.88;5034241;28;45432;-76
2022/09/09 11:10:30;;;;;;;;;1.00;1.00;;;;;22.26;52.60;100269.47;5033993;28;45426;-75
2022/09/09 11:13:03;;;;;;;;;2.00;1.00;;;;;22.28;53.01;100257.63;5021853;28;45557;-75
2022/09/09 11:15:38;;;;;;;;;2.50;2.50;;;;;22.59;52.23;100259.91;5033851;28;46472;-76
2022/09/09 11:18:06;;;;;;;;;2.00;0.75;;;;;22.82;50.91;100250.94;5034201;28;45384;-76
2022/09/09 11:20:32;;;;;;;;;2.25;2.25;;;;;23.28;49.49;100261.88;5035933;28;45475;-75
2022/09/09 11:23:03;;;;;;;;;4.25;2.00;;;;;23.45;48.44;100256.00;5035231;28;45430;-75
2022/09/09 11:25:36;;;;;;;;;1.75;1.75;;;;;24.02;47.12;100253.28;5015447;28;46286;-75
2022/09/09 11:28:06;;;;;;;;;3.75;3.00;;;;;24.57;46.12;100259.53;5033801;28;45530;-74
2022/09/09 11:30:52;;;;;;;;;1.00;1.00;;;;;24.90;44.61;100254.13;5034764;28;45382;-75
2022/09/09 11:33:58;;;;;;;;;1.00;1.00;;;;;24.81;44.24;100239.59;5034229;28;45419;-75
2022/09/09 11:36:49;;;;;;;;;1.00;0.75;;;;;24.83;44.11;100245.69;5015766;28;46115;-75
2022/09/09 11:39:30;;;;;;;;;0.75;0.75;;;;;24.98;44.71;100260.59;5033838;28;45472;-76
2022/09/09 11:42:07;;;;;;;;;1.75;0.75;;;;;24.75;43.99;100262.56;5033323;28;45377;-76
2022/09/09 11:44:32;;;;;;;;;0.75;0.75;;;;;24.45;45.79;100260.56;5033852;28;45432;-75
2022/09/09 11:46:58;;;;;;;;;2.25;2.25;;;;;24.16;47.84;100268.34;5033466;28;45411;-75
2022/09/09 11:49:45;;;;;;;;;3.00;2.00;;;;;23.83;48.43;100256.63;5034077;28;45304;-75